sensor_id;sensor_type;location;lat;lon;timestamp;temperature;humidity
51793;DHT22;37850;53.178;6.376;2022-09-09T00:04:52;15.20;99.90
51793;DHT22;37850;53.178;6.376;2022-09-09T00:10:37;15.10;99.90
51793;DHT22;37850;53.178;6.376;2022-09-09T00:13:18;15.10;99.90
51793;DHT22;37850;53.178;6.376;2022-09-09T00:16:03;15.10;99.90
51793;DHT22;37850;53.178;6.376;2022-09-09T00:21:06;15.00;99.90
51793;DHT22;37850;53.178;6.376;2022-09-09T00:23:34;15.00;99.90
51793;DHT22;37850;53.178;6.376;2022-09-09T00:31:31;14.90;99.90
51793;DHT22;37850;53.178;6.376;2022-09-09T00:36:37;14.90;99.90
51793;DHT22;37850;53.178;6.376;2022-09-09T00:39:04;14.90;99.90
51793;DHT22;37850;53.178;6.376;2022-09-09T00:41:48;14.80;99.90
51793;DHT22;37850;53.178;6.376;2022-09-09T00:44:33;14.80;99.90
51793;DHT22;37850;53.178;6.376;2022-09-09T00:50:03;14.80;99.90
51793;DHT22;37850;53.178;6.376;2022-09-09T00:52:51;14.80;99.90
51793;DHT22;37850;53.178;6.376;2022-09-09T00:58:07;14.70;99.90
51793;DHT22;37850;53.178;6.376;2022-09-09T01:00:57;14.70;99.90
51793;DHT22;37850;53.178;6.376;2022-09-09T01:03:32;14.70;99.90
51793;DHT22;37850;53.178;6.376;2022-09-09T01:12:02;14.60;99.90
51793;DHT22;37850;53.178;6.376;2022-09-09T01:22:32;14.60;99.90
51793;DHT22;37850;53.178;6.376;2022-09-09T01:27:43;14.50;99.90
51793;DHT22;37850;53.178;6.376;2022-09-09T01:30:14;14.50;99.90
51793;DHT22;37850;53.178;6.376;2022-09-09T01:32:50;14.50;99.90
51793;DHT22;37850;53.178;6.376;2022-09-09T01:38:04;14.50;99.90
51793;DHT22;37850;53.178;6.376;2022-09-09T01:40:30;14.40;99.90
51793;DHT22;37850;53.178;6.376;2022-09-09T01:42:56;14.40;99.90
51793;DHT22;37850;53.178;6.376;2022-09-09T01:45:22;14.40;99.90
51793;DHT22;37850;53.178;6.376;2022-09-09T01:47:51;14.40;99.90
51793;DHT22;37850;53.178;6.376;2022-09-09T01:50:17;14.40;99.90
51793;DHT22;37850;53.178;6.376;2022-09-09T01:52:46;14.40;99.90
51793;DHT22;37850;53.178;6.376;2022-09-09T01:55:14;14.40;99.90
51793;DHT22;37850;53.178;6.376;2022-09-09T01:57:56;14.30;99.90
51793;DHT22;37850;53.178;6.376;2022-09-09T02:00:27;14.30;99.90
51793;DHT22;37850;53.178;6.376;2022-09-09T02:03:23;14.30;99.90
51793;DHT22;37850;53.178;6.376;2022-09-09T02:08:45;14.30;99.90
51793;DHT22;37850;53.178;6.376;2022-09-09T02:11:17;14.30;99.90
51793;DHT22;37850;53.178;6.376;2022-09-09T02:13:45;14.50;99.90
51793;DHT22;37850;53.178;6.376;2022-09-09T02:16:32;14.30;99.90
51793;DHT22;37850;53.178;6.376;2022-09-09T02:21:35;14.30;99.90
51793;DHT22;37850;53.178;6.376;2022-09-09T02:24:04;14.40;99.90
51793;DHT22;37850;53.178;6.376;2022-09-09T02:26:32;14.30;99.90
51793;DHT22;37850;53.178;6.376;2022-09-09T02:29:03;14.30;99.90
51793;DHT22;37850;53.178;6.376;2022-09-09T02:31:30;14.30;99.90
51793;DHT22;37850;53.178;6.376;2022-09-09T02:33:59;14.40;99.90
51793;DHT22;37850;53.178;6.376;2022-09-09T02:36:29;14.30;99.90
51793;DHT22;37850;53.178;6.376;2022-09-09T02:38:56;14.30;99.90
51793;DHT22;37850;53.178;6.376;2022-09-09T02:41:33;14.30;99.90
51793;DHT22;37850;53.178;6.376;2022-09-09T02:43:59;14.30;99.90
51793;DHT22;37850;53.178;6.376;2022-09-09T02:47:13;14.30;99.90
51793;DHT22;37850;53.178;6.376;2022-09-09T02:52:38;14.30;99.90
51793;DHT22;37850;53.178;6.376;2022-09-09T02:55:26;14.30;99.90
51793;DHT22;37850;53.178;6.376;2022-09-09T02:57:56;14.30;99.90
51793;DHT22;37850;53.178;6.376;2022-09-09T03:00:28;14.40;99.90
51793;DHT22;37850;53.178;6.376;2022-09-09T03:02:54;14.30;99.90
51793;DHT22;37850;53.178;6.376;2022-09-09T03:05:21;14.50;99.90
51793;DHT22;37850;53.178;6.376;2022-09-09T03:07:47;14.50;99.90
51793;DHT22;37850;53.178;6.376;2022-09-09T03:10:13;14.40;99.90
51793;DHT22;37850;53.178;6.376;2022-09-09T03:12:39;14.40;99.90
51793;DHT22;37850;53.178;6.376;2022-09-09T03:15:06;14.40;99.90
51793;DHT22;37850;53.178;6.376;2022-09-09T03:17:33;14.40;99.90
51793;DHT22;37850;53.178;6.376;2022-09-09T03:19:59;14.40;99.90
51793;DHT22;37850;53.178;6.376;2022-09-09T03:22:25;14.40;99.90
51793;DHT22;37850;53.178;6.376;2022-09-09T03:24:51;14.40;99.90
51793;DHT22;37850;53.178;6.376;2022-09-09T03:27:18;14.50;99.90
51793;DHT22;37850;53.178;6.376;2022-09-09T03:29:45;14.40;99.90
51793;DHT22;37850;53.178;6.376;2022-09-09T03:32:11;14.40;99.90
51793;DHT22;37850;53.178;6.376;2022-09-09T03:34:37;14.40;99.90
51793;DHT22;37850;53.178;6.376;2022-09-09T03:37:06;14.40;99.90
51793;DHT22;37850;53.178;6.376;2022-09-09T03:39:31;14.40;99.90
51793;DHT22;37850;53.178;6.376;2022-09-09T03:41:57;14.40;99.90
51793;DHT22;37850;53.178;6.376;2022-09-09T03:44:23;14.50;99.90
51793;DHT22;37850;53.178;6.376;2022-09-09T03:46:49;14.40;99.90
51793;DHT22;37850;53.178;6.376;2022-09-09T03:49:14;14.40;99.90
51793;DHT22;37850;53.178;6.376;2022-09-09T03:51:41;14.40;99.90
51793;DHT22;37850;53.178;6.376;2022-09-09T03:54:07;14.40;99.90
51793;DHT22;37850;53.178;6.376;2022-09-09T03:56:35;14.40;99.90
51793;DHT22;37850;53.178;6.376;2022-09-09T03:59:02;14.40;99.90
51793;DHT22;37850;53.178;6.376;2022-09-09T04:01:28;14.40;99.90
51793;DHT22;37850;53.178;6.376;2022-09-09T04:03:54;14.40;99.90
51793;DHT22;37850;53.178;6.376;2022-09-09T04:06:26;14.40;99.90
51793;DHT22;37850;53.178;6.376;2022-09-09T04:08:52;14.40;99.90
51793;DHT22;37850;53.178;6.376;2022-09-09T04:11:18;14.50;99.90
51793;DHT22;37850;53.178;6.376;2022-09-09T04:13:43;14.40;99.90
51793;DHT22;37850;53.178;6.376;2022-09-09T04:16:11;14.40;99.90
51793;DHT22;37850;53.178;6.376;2022-09-09T04:18:37;14.40;99.90
51793;DHT22;37850;53.178;6.376;2022-09-09T04:21:04;14.40;99.90
51793;DHT22;37850;53.178;6.376;2022-09-09T04:23:30;14.50;99.90
51793;DHT22;37850;53.178;6.376;2022-09-09T04:25:57;14.50;99.90
51793;DHT22;37850;53.178;6.376;2022-09-09T04:28:26;14.50;99.90
51793;DHT22;37850;53.178;6.376;2022-09-09T04:30:53;14.50;99.90
51793;DHT22;37850;53.178;6.376;2022-09-09T04:33:25;14.50;99.90
51793;DHT22;37850;53.178;6.376;2022-09-09T04:35:53;14.50;99.90
51793;DHT22;37850;53.178;6.376;2022-09-09T04:38:20;14.50;99.90
51793;DHT22;37850;53.178;6.376;2022-09-09T04:40:49;14.50;99.90
51793;DHT22;37850;53.178;6.376;2022-09-09T04:43:15;14.50;99.90
51793;DHT22;37850;53.178;6.376;2022-09-09T04:45:41;14.50;99.90
51793;DHT22;37850;53.178;6.376;2022-09-09T04:48:07;14.60;99.90
51793;DHT22;37850;53.178;6.376;2022-09-09T04:50:35;14.50;99.90
51793;DHT22;37850;53.178;6.376;2022-09-09T04:53:04;14.50;99.90
51793;DHT22;37850;53.178;6.376;2022-09-09T04:55:31;14.50;99.90
51793;DHT22;37850;53.178;6.376;2022-09-09T04:57:57;14.50;99.90
51793;DHT22;37850;53.178;6.376;2022-09-09T05:00:24;14.50;99.90
51793;DHT22;37850;53.178;6.376;2022-09-09T05:02:50;14.50;99.90
51793;DHT22;37850;53.178;6.376;2022-09-09T05:05:16;14.50;99.90
51793;DHT22;37850;53.178;6.376;2022-09-09T05:07:42;14.50;99.90
51793;DHT22;37850;53.178;6.376;2022-09-09T05:10:09;14.50;99.90
51793;DHT22;37850;53.178;6.376;2022-09-09T05:12:36;14.60;99.90
51793;DHT22;37850;53.178;6.376;2022-09-09T05:15:01;14.50;99.90
51793;DHT22;37850;53.178;6.376;2022-09-09T05:17:27;14.50;99.90
51793;DHT22;37850;53.178;6.376;2022-09-09T05:19:56;14.50;99.90
51793;DHT22;37850;53.178;6.376;2022-09-09T05:22:22;14.50;99.90
51793;DHT22;37850;53.178;6.376;2022-09-09T05:24:51;14.50;99.90
51793;DHT22;37850;53.178;6.376;2022-09-09T05:27:18;14.50;99.90
51793;DHT22;37850;53.178;6.376;2022-09-09T05:29:45;14.50;99.90
51793;DHT22;37850;53.178;6.376;2022-09-09T05:32:11;14.50;99.90
51793;DHT22;37850;53.178;6.376;2022-09-09T05:34:37;14.50;99.90
51793;DHT22;37850;53.178;6.376;2022-09-09T05:37:03;14.50;99.90
51793;DHT22;37850;53.178;6.376;2022-09-09T05:39:30;14.50;99.90
51793;DHT22;37850;53.178;6.376;2022-09-09T05:41:55;14.50;99.90
51793;DHT22;37850;53.178;6.376;2022-09-09T05:44:21;14.50;99.90
51793;DHT22;37850;53.178;6.376;2022-09-09T05:46:49;14.60;99.90
51793;DHT22;37850;53.178;6.376;2022-09-09T05:49:15;14.50;99.90
51793;DHT22;37850;53.178;6.376;2022-09-09T05:51:41;14.60;99.90
51793;DHT22;37850;53.178;6.376;2022-09-09T05:54:08;14.60;99.90
51793;DHT22;37850;53.178;6.376;2022-09-09T05:56:34;14.60;99.90
51793;DHT22;37850;53.178;6.376;2022-09-09T05:59:00;14.50;99.90
51793;DHT22;37850;53.178;6.376;2022-09-09T06:01:32;14.50;99.90
51793;DHT22;37850;53.178;6.376;2022-09-09T06:03:58;14.60;99.90
51793;DHT22;37850;53.178;6.376;2022-09-09T06:06:26;14.60;99.90
51793;DHT22;37850;53.178;6.376;2022-09-09T06:08:53;14.60;99.90
51793;DHT22;37850;53.178;6.376;2022-09-09T06:11:27;14.50;99.90
51793;DHT22;37850;53.178;6.376;2022-09-09T06:13:56;14.70;99.90
51793;DHT22;37850;53.178;6.376;2022-09-09T06:16:25;14.60;99.90
51793;DHT22;37850;53.178;6.376;2022-09-09T06:18:52;14.60;99.90
51793;DHT22;37850;53.178;6.376;2022-09-09T06:21:39;14.60;99.90
51793;DHT22;37850;53.178;6.376;2022-09-09T06:24:06;14.60;99.90
51793;DHT22;37850;53.178;6.376;2022-09-09T06:26:34;14.60;99.90
51793;DHT22;37850;53.178;6.376;2022-09-09T06:29:02;14.70;99.90
51793;DHT22;37850;53.178;6.376;2022-09-09T06:31:30;14.80;99.90
51793;DHT22;37850;53.178;6.376;2022-09-09T06:33:57;14.60;99.90
51793;DHT22;37850;53.178;6.376;2022-09-09T06:36:28;14.70;99.90
51793;DHT22;37850;53.178;6.376;2022-09-09T06:38:55;14.70;99.90
51793;DHT22;37850;53.178;6.376;2022-09-09T06:41:23;14.60;99.90
51793;DHT22;37850;53.178;6.376;2022-09-09T06:43:51;14.70;99.90
51793;DHT22;37850;53.178;6.376;2022-09-09T06:46:19;14.70;99.90
51793;DHT22;37850;53.178;6.376;2022-09-09T06:48:47;14.70;99.90
51793;DHT22;37850;53.178;6.376;2022-09-09T06:51:17;14.80;99.90
51793;DHT22;37850;53.178;6.376;2022-09-09T06:53:45;14.80;99.90
51793;DHT22;37850;53.178;6.376;2022-09-09T06:58:41;14.80;99.90
51793;DHT22;37850;53.178;6.376;2022-09-09T07:01:09;14.90;99.90
51793;DHT22;37850;53.178;6.376;2022-09-09T07:03:35;14.80;99.90
51793;DHT22;37850;53.178;6.376;2022-09-09T07:06:01;14.80;99.90
51793;DHT22;37850;53.178;6.376;2022-09-09T07:08:27;14.80;99.90
51793;DHT22;37850;53.178;6.376;2022-09-09T07:10:54;14.80;99.90
51793;DHT22;37850;53.178;6.376;2022-09-09T07:13:26;14.80;99.90
51793;DHT22;37850;53.178;6.376;2022-09-09T07:15:52;14.80;99.90
51793;DHT22;37850;53.178;6.376;2022-09-09T07:18:20;14.80;99.90
51793;DHT22;37850;53.178;6.376;2022-09-09T07:20:55;14.90;99.90
51793;DHT22;37850;53.178;6.376;2022-09-09T07:23:23;14.90;99.90
51793;DHT22;37850;53.178;6.376;2022-09-09T07:25:49;14.90;99.90
51793;DHT22;37850;53.178;6.376;2022-09-09T07:28:16;14.90;99.90
51793;DHT22;37850;53.178;6.376;2022-09-09T07:30:42;15.00;99.90
51793;DHT22;37850;53.178;6.376;2022-09-09T07:33:08;15.00;99.90
51793;DHT22;37850;53.178;6.376;2022-09-09T07:35:35;15.00;99.90
51793;DHT22;37850;53.178;6.376;2022-09-09T07:38:02;15.00;99.90
51793;DHT22;37850;53.178;6.376;2022-09-09T07:40:29;15.10;99.90
51793;DHT22;37850;53.178;6.376;2022-09-09T07:42:55;15.20;99.90
51793;DHT22;37850;53.178;6.376;2022-09-09T07:45:21;15.30;99.90
51793;DHT22;37850;53.178;6.376;2022-09-09T07:47:47;15.30;99.90
51793;DHT22;37850;53.178;6.376;2022-09-09T07:50:14;15.30;99.90
51793;DHT22;37850;53.178;6.376;2022-09-09T07:52:40;15.40;99.90
51793;DHT22;37850;53.178;6.376;2022-09-09T07:55:06;15.40;99.90
51793;DHT22;37850;53.178;6.376;2022-09-09T07:57:32;15.50;99.90
51793;DHT22;37850;53.178;6.376;2022-09-09T07:59:58;15.50;99.90
51793;DHT22;37850;53.178;6.376;2022-09-09T08:02:24;15.50;99.90
51793;DHT22;37850;53.178;6.376;2022-09-09T08:04:51;15.50;99.90
51793;DHT22;37850;53.178;6.376;2022-09-09T08:07:17;15.50;99.90
51793;DHT22;37850;53.178;6.376;2022-09-09T08:09:43;15.60;99.90
51793;DHT22;37850;53.178;6.376;2022-09-09T08:12:09;15.60;99.90
51793;DHT22;37850;53.178;6.376;2022-09-09T08:14:38;15.60;99.90
51793;DHT22;37850;53.178;6.376;2022-09-09T08:17:05;15.70;99.90
51793;DHT22;37850;53.178;6.376;2022-09-09T08:19:31;15.70;99.90
51793;DHT22;37850;53.178;6.376;2022-09-09T08:22:01;15.70;99.90
51793;DHT22;37850;53.178;6.376;2022-09-09T08:24:28;15.70;99.90
51793;DHT22;37850;53.178;6.376;2022-09-09T08:26:54;15.80;99.90
51793;DHT22;37850;53.178;6.376;2022-09-09T08:29:22;15.80;99.90
51793;DHT22;37850;53.178;6.376;2022-09-09T08:31:50;15.80;99.90
51793;DHT22;37850;53.178;6.376;2022-09-09T08:34:17;15.90;99.90
51793;DHT22;37850;53.178;6.376;2022-09-09T08:36:45;15.90;99.90
51793;DHT22;37850;53.178;6.376;2022-09-09T08:39:14;16.00;99.90
51793;DHT22;37850;53.178;6.376;2022-09-09T08:52:30;16.20;99.90
51793;DHT22;37850;53.178;6.376;2022-09-09T08:55:22;16.30;99.90
51793;DHT22;37850;53.178;6.376;2022-09-09T08:57:52;16.30;99.90
51793;DHT22;37850;53.178;6.376;2022-09-09T09:00:19;16.50;99.90
51793;DHT22;37850;53.178;6.376;2022-09-09T09:03:02;16.60;99.90
51793;DHT22;37850;53.178;6.376;2022-09-09T09:05:47;16.70;99.90
51793;DHT22;37850;53.178;6.376;2022-09-09T09:08:33;16.80;99.90
51793;DHT22;37850;53.178;6.376;2022-09-09T09:11:03;17.10;99.90
51793;DHT22;37850;53.178;6.376;2022-09-09T09:13:35;17.30;99.90
51793;DHT22;37850;53.178;6.376;2022-09-09T09:16:23;17.50;99.90
51793;DHT22;37850;53.178;6.376;2022-09-09T09:18:52;17.70;99.90
51793;DHT22;37850;53.178;6.376;2022-09-09T09:21:39;17.90;99.90
51793;DHT22;37850;53.178;6.376;2022-09-09T09:24:14;17.90;99.90
51793;DHT22;37850;53.178;6.376;2022-09-09T09:26:43;18.00;99.90
51793;DHT22;37850;53.178;6.376;2022-09-09T09:29:14;18.00;99.90
51793;DHT22;37850;53.178;6.376;2022-09-09T09:32:02;18.10;99.90
51793;DHT22;37850;53.178;6.376;2022-09-09T09:34:28;18.10;99.90
51793;DHT22;37850;53.178;6.376;2022-09-09T09:36:57;18.00;99.90
51793;DHT22;37850;53.178;6.376;2022-09-09T09:39:28;17.90;99.90
51793;DHT22;37850;53.178;6.376;2022-09-09T09:41:54;17.90;99.90
51793;DHT22;37850;53.178;6.376;2022-09-09T09:44:28;17.90;99.90
51793;DHT22;37850;53.178;6.376;2022-09-09T09:47:14;17.90;99.90
51793;DHT22;37850;53.178;6.376;2022-09-09T09:49:58;17.80;99.90
51793;DHT22;37850;53.178;6.376;2022-09-09T09:52:29;17.80;99.90
51793;DHT22;37850;53.178;6.376;2022-09-09T09:54:57;17.80;99.90
51793;DHT22;37850;53.178;6.376;2022-09-09T09:57:26;17.80;99.90
51793;DHT22;37850;53.178;6.376;2022-09-09T10:00:22;17.70;99.90
51793;DHT22;37850;53.178;6.376;2022-09-09T10:02:49;17.70;99.90
51793;DHT22;37850;53.178;6.376;2022-09-09T10:05:28;17.70;99.90
51793;DHT22;37850;53.178;6.376;2022-09-09T10:08:20;17.70;99.90
51793;DHT22;37850;53.178;6.376;2022-09-09T10:13:32;17.70;99.90
51793;DHT22;37850;53.178;6.376;2022-09-09T10:19:03;17.60;99.90
51793;DHT22;37850;53.178;6.376;2022-09-09T10:37:31;17.60;99.90
51793;DHT22;37850;53.178;6.376;2022-09-09T10:42:47;17.70;99.90
51793;DHT22;37850;53.178;6.376;2022-09-09T10:45:20;17.80;99.90
51793;DHT22;37850;53.178;6.376;2022-09-09T10:53:25;17.90;99.90
51793;DHT22;37850;53.178;6.376;2022-09-09T10:56:21;18.00;99.90
51793;DHT22;37850;53.178;6.376;2022-09-09T10:59:00;18.00;99.90
51793;DHT22;37850;53.178;6.376;2022-09-09T11:04:05;18.20;99.90
51793;DHT22;37850;53.178;6.376;2022-09-09T11:06:40;18.30;99.90
51793;DHT22;37850;53.178;6.376;2022-09-09T11:09:15;18.40;99.90
51793;DHT22;37850;53.178;6.376;2022-09-09T11:11:49;18.30;99.90
51793;DHT22;37850;53.178;6.376;2022-09-09T11:14:24;18.40;99.90
51793;DHT22;37850;53.178;6.376;2022-09-09T11:17:11;18.50;99.90
51793;DHT22;37850;53.178;6.376;2022-09-09T11:19:40;18.50;99.90
51793;DHT22;37850;53.178;6.376;2022-09-09T11:25:07;18.70;99.90
51793;DHT22;37850;53.178;6.376;2022-09-09T11:30:21;18.80;99.90
51793;DHT22;37850;53.178;6.376;2022-09-09T11:38:31;18.90;99.90
51793;DHT22;37850;53.178;6.376;2022-09-09T11:41:03;19.00;99.90
51793;DHT22;37850;53.178;6.376;2022-09-09T11:46:05;19.00;99.90
51793;DHT22;37850;53.178;6.376;2022-09-09T11:48:39;19.10;99.90
51793;DHT22;37850;53.178;6.376;2022-09-09T11:51:24;19.20;99.90
51793;DHT22;37850;53.178;6.376;2022-09-09T11:56:32;19.30;99.90
51793;DHT22;37850;53.178;6.376;2022-09-09T11:59:19;19.30;99.90
51793;DHT22;37850;53.178;6.376;2022-09-09T12:01:58;19.40;99.90
51793;DHT22;37850;53.178;6.376;2022-09-09T12:04:27;19.40;99.90
51793;DHT22;37850;53.178;6.376;2022-09-09T12:07:01;19.50;99.90
51793;DHT22;37850;53.178;6.376;2022-09-09T12:19:41;19.50;99.90
51793;DHT22;37850;53.178;6.376;2022-09-09T12:24:37;19.40;99.90
51793;DHT22;37850;53.178;6.376;2022-09-09T12:29:54;19.30;99.90
51793;DHT22;37850;53.178;6.376;2022-09-09T12:32:24;19.30;99.90
51793;DHT22;37850;53.178;6.376;2022-09-09T12:34:54;19.20;99.90
51793;DHT22;37850;53.178;6.376;2022-09-09T12:37:36;19.20;99.90
51793;DHT22;37850;53.178;6.376;2022-09-09T12:42:46;19.40;99.90
51793;DHT22;37850;53.178;6.376;2022-09-09T12:50:29;19.40;99.90
51793;DHT22;37850;53.178;6.376;2022-09-09T12:53:31;19.40;99.90
51793;DHT22;37850;53.178;6.376;2022-09-09T12:56:00;19.50;99.90
51793;DHT22;37850;53.178;6.376;2022-09-09T12:58:29;19.50;99.90
51793;DHT22;37850;53.178;6.376;2022-09-09T13:00:58;19.50;99.90
51793;DHT22;37850;53.178;6.376;2022-09-09T13:03:25;19.50;99.90
51793;DHT22;37850;53.178;6.376;2022-09-09T13:05:53;19.50;99.90
51793;DHT22;37850;53.178;6.376;2022-09-09T13:08:19;19.60;99.90
51793;DHT22;37850;53.178;6.376;2022-09-09T13:10:59;19.80;99.90
51793;DHT22;37850;53.178;6.376;2022-09-09T13:13:39;19.80;99.90
51793;DHT22;37850;53.178;6.376;2022-09-09T13:16:17;19.90;99.90
51793;DHT22;37850;53.178;6.376;2022-09-09T13:18:43;19.90;99.90
51793;DHT22;37850;53.178;6.376;2022-09-09T13:21:09;19.80;99.90
51793;DHT22;37850;53.178;6.376;2022-09-09T13:23:36;19.80;99.90
51793;DHT22;37850;53.178;6.376;2022-09-09T13:26:22;19.80;99.90
51793;DHT22;37850;53.178;6.376;2022-09-09T13:28:53;19.70;99.90
51793;DHT22;37850;53.178;6.376;2022-09-09T13:31:32;19.70;99.90
51793;DHT22;37850;53.178;6.376;2022-09-09T13:34:11;19.70;99.90
51793;DHT22;37850;53.178;6.376;2022-09-09T13:36:38;19.70;99.90
51793;DHT22;37850;53.178;6.376;2022-09-09T13:39:16;19.60;99.90
51793;DHT22;37850;53.178;6.376;2022-09-09T13:41:45;19.60;99.90
51793;DHT22;37850;53.178;6.376;2022-09-09T13:44:27;19.50;99.90
51793;DHT22;37850;53.178;6.376;2022-09-09T13:49:42;19.40;99.90
51793;DHT22;37850;53.178;6.376;2022-09-09T13:52:16;19.40;99.90
51793;DHT22;37850;53.178;6.376;2022-09-09T13:54:51;19.30;99.90
51793;DHT22;37850;53.178;6.376;2022-09-09T13:57:20;19.30;99.90
51793;DHT22;37850;53.178;6.376;2022-09-09T13:59:47;19.30;99.90
51793;DHT22;37850;53.178;6.376;2022-09-09T14:02:14;19.30;99.90
51793;DHT22;37850;53.178;6.376;2022-09-09T14:04:40;19.40;99.90
51793;DHT22;37850;53.178;6.376;2022-09-09T14:07:14;19.40;99.90
51793;DHT22;37850;53.178;6.376;2022-09-09T14:09:40;19.40;99.90
51793;DHT22;37850;53.178;6.376;2022-09-09T14:12:13;19.40;99.90
51793;DHT22;37850;53.178;6.376;2022-09-09T14:14:41;19.40;99.90
51793;DHT22;37850;53.178;6.376;2022-09-09T14:17:08;19.40;99.90
51793;DHT22;37850;53.178;6.376;2022-09-09T14:19:34;19.40;99.90
51793;DHT22;37850;53.178;6.376;2022-09-09T14:22:00;19.30;99.90
51793;DHT22;37850;53.178;6.376;2022-09-09T14:24:26;19.30;99.90
51793;DHT22;37850;53.178;6.376;2022-09-09T14:26:53;19.20;99.90
51793;DHT22;37850;53.178;6.376;2022-09-09T14:29:19;19.20;99.90
51793;DHT22;37850;53.178;6.376;2022-09-09T14:31:45;19.10;99.90
51793;DHT22;37850;53.178;6.376;2022-09-09T14:34:11;19.00;99.90
51793;DHT22;37850;53.178;6.376;2022-09-09T14:36:37;19.00;99.90
51793;DHT22;37850;53.178;6.376;2022-09-09T14:39:04;18.90;99.90
51793;DHT22;37850;53.178;6.376;2022-09-09T14:41:30;18.80;99.90
51793;DHT22;37850;53.178;6.376;2022-09-09T14:43:56;18.70;99.90
51793;DHT22;37850;53.178;6.376;2022-09-09T14:46:22;18.70;99.90
51793;DHT22;37850;53.178;6.376;2022-09-09T14:48:48;18.60;99.90
51793;DHT22;37850;53.178;6.376;2022-09-09T14:51:20;18.60;99.90
51793;DHT22;37850;53.178;6.376;2022-09-09T14:53:48;18.60;99.90
51793;DHT22;37850;53.178;6.376;2022-09-09T14:56:18;18.60;99.90
51793;DHT22;37850;53.178;6.376;2022-09-09T14:58:44;18.70;99.90
51793;DHT22;37850;53.178;6.376;2022-09-09T15:01:18;18.80;99.90
51793;DHT22;37850;53.178;6.376;2022-09-09T15:03:50;18.90;99.90
51793;DHT22;37850;53.178;6.376;2022-09-09T15:06:17;19.00;99.90
51793;DHT22;37850;53.178;6.376;2022-09-09T15:08:44;19.10;99.90
51793;DHT22;37850;53.178;6.376;2022-09-09T15:11:12;19.20;99.90
51793;DHT22;37850;53.178;6.376;2022-09-09T15:13:40;19.30;99.90
51793;DHT22;37850;53.178;6.376;2022-09-09T15:16:12;19.30;99.90
51793;DHT22;37850;53.178;6.376;2022-09-09T15:18:38;19.30;99.90
51793;DHT22;37850;53.178;6.376;2022-09-09T15:21:19;19.30;99.90
51793;DHT22;37850;53.178;6.376;2022-09-09T15:23:45;19.30;99.90
51793;DHT22;37850;53.178;6.376;2022-09-09T15:26:11;19.20;99.90
51793;DHT22;37850;53.178;6.376;2022-09-09T15:28:40;19.20;99.90
51793;DHT22;37850;53.178;6.376;2022-09-09T15:33:52;19.20;99.90
51793;DHT22;37850;53.178;6.376;2022-09-09T15:36:25;19.20;99.90
51793;DHT22;37850;53.178;6.376;2022-09-09T15:38:52;19.10;99.90
51793;DHT22;37850;53.178;6.376;2022-09-09T15:41:20;19.20;99.90
51793;DHT22;37850;53.178;6.376;2022-09-09T15:43:48;19.20;99.90
51793;DHT22;37850;53.178;6.376;2022-09-09T15:46:25;19.20;99.90
51793;DHT22;37850;53.178;6.376;2022-09-09T15:48:58;19.20;99.90
51793;DHT22;37850;53.178;6.376;2022-09-09T15:51:25;19.20;99.90
51793;DHT22;37850;53.178;6.376;2022-09-09T15:53:56;19.10;99.90
51793;DHT22;37850;53.178;6.376;2022-09-09T15:56:23;19.10;99.90
51793;DHT22;37850;53.178;6.376;2022-09-09T15:58:49;19.10;99.90
51793;DHT22;37850;53.178;6.376;2022-09-09T16:01:15;19.10;99.90
51793;DHT22;37850;53.178;6.376;2022-09-09T16:03:42;19.10;99.90
51793;DHT22;37850;53.178;6.376;2022-09-09T16:06:10;19.00;99.90
51793;DHT22;37850;53.178;6.376;2022-09-09T16:08:39;18.90;99.90
51793;DHT22;37850;53.178;6.376;2022-09-09T16:11:10;18.80;99.90
51793;DHT22;37850;53.178;6.376;2022-09-09T16:13:36;18.70;99.90
51793;DHT22;37850;53.178;6.376;2022-09-09T16:16:03;18.60;99.90
51793;DHT22;37850;53.178;6.376;2022-09-09T16:18:34;18.50;99.90
51793;DHT22;37850;53.178;6.376;2022-09-09T16:21:00;18.40;99.90
51793;DHT22;37850;53.178;6.376;2022-09-09T16:23:26;18.40;99.90
51793;DHT22;37850;53.178;6.376;2022-09-09T16:25:56;18.40;99.90
51793;DHT22;37850;53.178;6.376;2022-09-09T16:28:21;18.30;99.90
51793;DHT22;37850;53.178;6.376;2022-09-09T16:30:48;18.30;99.90
51793;DHT22;37850;53.178;6.376;2022-09-09T16:33:13;18.30;99.90
51793;DHT22;37850;53.178;6.376;2022-09-09T16:35:42;18.20;99.90
51793;DHT22;37850;53.178;6.376;2022-09-09T16:38:08;18.30;99.90
51793;DHT22;37850;53.178;6.376;2022-09-09T16:40:35;18.30;99.90
51793;DHT22;37850;53.178;6.376;2022-09-09T16:43:02;18.20;99.90
51793;DHT22;37850;53.178;6.376;2022-09-09T16:45:28;18.20;99.90
51793;DHT22;37850;53.178;6.376;2022-09-09T16:47:54;18.20;99.90
51793;DHT22;37850;53.178;6.376;2022-09-09T16:50:20;18.20;99.90
51793;DHT22;37850;53.178;6.376;2022-09-09T16:52:45;18.20;99.90
51793;DHT22;37850;53.178;6.376;2022-09-09T16:55:11;18.20;99.90
51793;DHT22;37850;53.178;6.376;2022-09-09T16:57:37;18.20;99.90
51793;DHT22;37850;53.178;6.376;2022-09-09T17:00:04;18.10;99.90
51793;DHT22;37850;53.178;6.376;2022-09-09T17:02:32;18.10;99.90
51793;DHT22;37850;53.178;6.376;2022-09-09T17:04:58;18.00;99.90
51793;DHT22;37850;53.178;6.376;2022-09-09T17:07:24;18.00;99.90
51793;DHT22;37850;53.178;6.376;2022-09-09T17:09:50;18.00;99.90
51793;DHT22;37850;53.178;6.376;2022-09-09T17:12:16;17.80;99.90
51793;DHT22;37850;53.178;6.376;2022-09-09T17:14:42;17.80;99.90
51793;DHT22;37850;53.178;6.376;2022-09-09T17:17:08;17.70;99.90
51793;DHT22;37850;53.178;6.376;2022-09-09T17:19:34;17.70;99.90
51793;DHT22;37850;53.178;6.376;2022-09-09T17:22:00;17.80;99.90
51793;DHT22;37850;53.178;6.376;2022-09-09T17:24:29;17.70;99.90
51793;DHT22;37850;53.178;6.376;2022-09-09T17:26:54;17.70;99.90
51793;DHT22;37850;53.178;6.376;2022-09-09T17:29:21;17.70;99.90
51793;DHT22;37850;53.178;6.376;2022-09-09T17:31:47;17.70;99.90
51793;DHT22;37850;53.178;6.376;2022-09-09T17:34:12;17.70;99.90
51793;DHT22;37850;53.178;6.376;2022-09-09T17:36:38;17.60;99.90
51793;DHT22;37850;53.178;6.376;2022-09-09T17:39:05;17.60;99.90
51793;DHT22;37850;53.178;6.376;2022-09-09T17:41:39;17.60;99.90
51793;DHT22;37850;53.178;6.376;2022-09-09T17:44:05;17.60;99.90
51793;DHT22;37850;53.178;6.376;2022-09-09T17:46:37;17.60;99.90
51793;DHT22;37850;53.178;6.376;2022-09-09T17:49:08;17.50;99.90
51793;DHT22;37850;53.178;6.376;2022-09-09T17:51:35;17.60;99.90
51793;DHT22;37850;53.178;6.376;2022-09-09T17:54:05;17.60;99.90
51793;DHT22;37850;53.178;6.376;2022-09-09T17:56:33;17.50;99.90
51793;DHT22;37850;53.178;6.376;2022-09-09T17:59:01;17.50;99.90
51793;DHT22;37850;53.178;6.376;2022-09-09T18:01:36;17.50;99.90
51793;DHT22;37850;53.178;6.376;2022-09-09T18:04:05;17.50;99.90
51793;DHT22;37850;53.178;6.376;2022-09-09T18:06:45;17.50;99.90
51793;DHT22;37850;53.178;6.376;2022-09-09T18:09:14;17.50;99.90